Metar z połowy godziny Komunikat METAR ze strony awiacja.imgw.pl Metar G00 EPLB METAR EPLB 271330Z 25013KT 9999 SCT018 BKN021 03/02 Q0997 =